DAL2506 KECP-KATL
Flight info
| Callsign | DAL2506 |
|---|---|
| Flight time | N/A |
| Altitude | 23000 |
| Route | DCT RRS DCT GOLLM HOBTT3 |
| Aircraft | MD88/M-SDFGIRWY/S |
Departure
| Time | 2026-04-25 14:55 |
|---|---|
| Airport | Northwest Florida Beaches International Airport (KECP) |
Arrival
| Time | N/A |
|---|---|
| Airport | Hartsfield Jackson Atlanta International Airport (KATL) |
| Time | Latitude | Longitude | Altitude | Speed | Heading |
|---|---|---|---|---|---|
| 2026-04-25 14:41 | 30.35603 | -85.79888 | 66 ft | 0 kts | 176° |
| 2026-04-25 14:48 | 30.35604 | -85.79888 | 66 ft | 2 kts | 176° |
| 2026-04-25 14:48 | 30.35622 | -85.79889 | 59 ft | 3 kts | 176° |
| 2026-04-25 14:48 | 30.35640 | -85.79897 | 59 ft | 3 kts | 127° |
| 2026-04-25 14:48 | 30.35645 | -85.79916 | 61 ft | 1 kts | 88° |
| 2026-04-25 14:50 | 30.35646 | -85.79893 | 58 ft | 7 kts | 88° |
| 2026-04-25 14:50 | 30.35650 | -85.79840 | 65 ft | 7 kts | 81° |
| 2026-04-25 14:50 | 30.35661 | -85.79788 | 60 ft | 7 kts | 73° |
| 2026-04-25 14:51 | 30.35685 | -85.79736 | 65 ft | 7 kts | 43° |
| 2026-04-25 14:51 | 30.35733 | -85.79727 | 66 ft | 10 kts | 346° |
| 2026-04-25 14:51 | 30.35802 | -85.79754 | 60 ft | 11 kts | 340° |
| 2026-04-25 14:51 | 30.35905 | -85.79801 | 65 ft | 30 kts | 338° |
| 2026-04-25 14:52 | 30.36077 | -85.79877 | 58 ft | 25 kts | 339° |
| 2026-04-25 14:52 | 30.36237 | -85.79945 | 62 ft | 24 kts | 341° |
| 2026-04-25 14:52 | 30.36396 | -85.80012 | 66 ft | 24 kts | 339° |
| 2026-04-25 14:52 | 30.36502 | -85.80058 | 63 ft | 24 kts | 339° |
| 2026-04-25 14:53 | 30.36709 | -85.80151 | 62 ft | 24 kts | 340° |
| 2026-04-25 14:53 | 30.36864 | -85.80214 | 64 ft | 24 kts | 340° |
| 2026-04-25 14:53 | 30.37015 | -85.80276 | 62 ft | 17 kts | 0° |
| 2026-04-25 14:53 | 30.37080 | -85.80190 | 73 ft | 13 kts | 68° |
| 2026-04-25 14:54 | 30.37082 | -85.80115 | 69 ft | 5 kts | 116° |
| 2026-04-25 14:54 | 30.37055 | -85.80091 | 69 ft | 19 kts | 150° |
| 2026-04-25 14:54 | 30.36712 | -85.79942 | 66 ft | 96 kts | 160° |
| 2026-04-25 14:54 | 30.35848 | -85.79566 | 96 ft | 177 kts | 160° |
| 2026-04-25 14:55 | 30.34639 | -85.78985 | 1065 ft | 187 kts | 158° |
| 2026-04-25 14:55 | 30.33357 | -85.78309 | 1766 ft | 229 kts | 156° |
| 2026-04-25 14:55 | 30.32048 | -85.77207 | 2392 ft | 242 kts | 130° |
| 2026-04-25 14:55 | 30.31401 | -85.75320 | 2646 ft | 275 kts | 90° |
| 2026-04-25 14:56 | 30.32153 | -85.73288 | 3064 ft | 280 kts | 38° |
| 2026-04-25 14:56 | 30.33824 | -85.72645 | 3601 ft | 242 kts | 2° |
| 2026-04-25 14:56 | 30.35379 | -85.72555 | 4196 ft | 217 kts | 0° |
| 2026-04-25 14:56 | 30.36883 | -85.72477 | 4346 ft | 210 kts | 0° |
| 2026-04-25 14:57 | 30.38315 | -85.72391 | 4631 ft | 200 kts | 0° |
| 2026-04-25 14:57 | 30.39660 | -85.72322 | 4930 ft | 187 kts | 359° |
| 2026-04-25 14:57 | 30.40916 | -85.72266 | 5230 ft | 174 kts | 359° |
| 2026-04-25 14:57 | 30.42102 | -85.72214 | 5379 ft | 171 kts | 359° |
| 2026-04-25 14:58 | 30.43318 | -85.72309 | 5285 ft | 179 kts | 342° |
| 2026-04-25 14:58 | 30.44454 | -85.72823 | 5447 ft | 170 kts | 323° |
| 2026-04-25 14:58 | 30.45346 | -85.73680 | 5602 ft | 167 kts | 306° |
| 2026-04-25 14:58 | 30.45964 | -85.74826 | 5727 ft | 168 kts | 289° |
| 2026-04-25 14:59 | 30.46438 | -85.76039 | 5896 ft | 165 kts | 298° |
| 2026-04-25 14:59 | 30.47209 | -85.77059 | 5898 ft | 175 kts | 318° |